Home   Weather   France   Beauvais   Past weeks
Flag for France

Past Weather in Beauvais, Oise, France — Yesterday and Last 2 Weeks

Currently: 30 °F. Clear. (Weather station: Beauvais Airport, France). See more current weather

Past Weather in Beauvais — Graph

°F

Beauvais Temperature Yesterday

Maximum temperature yesterday: 46 °F (at 3:00 pm)
Minimum temperature yesterday: 32 °F (at 6:30 am)
Average temperature yesterday: 38 °F

High & Low Weather Summary for the Past Weeks

 TemperatureHumidityPressure
High52 °F (Feb 4, 2:30 pm)100% (Jan 25, 3:30 am)30.77 "Hg (Jan 25, 3:30 am)
Low23 °F (Jan 29, 3:00 am)57% (Feb 6, 3:00 pm)30.21 "Hg (Jan 26, 4:00 am)
Average39 °F86%30.47 "Hg
* Reported Jan 23 9:00 pm — Feb 7 9:00 pm, Beauvais. Weather by CustomWeather, © 2023

Note: Actual official high and low records may vary slightly from our data, if they occured in-between our weather recording intervals... More about our weather records

Beauvais Weather History for the Previous 24 Hours

Scroll right to see more
 ConditionsComfort  
Time TempWeatherWind HumidityBarometerVisibility
9:00 pm
Tue, Feb 7
30 °FClear.2 mph93%30.63 "Hg10 mi
8:30 pm32 °FPassing clouds.9 mph93%30.63 "HgN/A
8:00 pm32 °FClear.8 mph87%30.63 "Hg10 mi
7:00 pm32 °FClear.6 mph87%30.63 "Hg10 mi
6:30 pm34 °FClear.7 mph87%30.63 "Hg10 mi
6:00 pm36 °FClear.6 mph81%30.63 "Hg10 mi
5:30 pm39 °FSunny.7 mph70%30.63 "Hg10 mi
5:00 pm41 °FSunny.10 mph66%30.63 "Hg10 mi
4:30 pm41 °FSunny.9 mph66%30.63 "Hg10 mi
4:00 pm43 °FSunny.8 mph61%30.60 "Hg10 mi
3:00 pm41 °FPassing clouds.8 mph66%30.60 "HgN/A
2:30 pm41 °FPassing clouds.7 mph66%30.60 "HgN/A
2:00 pm41 °FSunny.8 mph61%30.63 "Hg10 mi
1:00 pm39 °FSunny.10 mph70%30.63 "Hg10 mi
12:30 pm39 °FPassing clouds.12 mph70%30.63 "HgN/A
12:00 pm39 °FSunny.13 mph65%30.63 "Hg10 mi
11:30 am37 °FSunny.12 mph70%30.63 "Hg10 mi
11:00 am37 °FSunny.9 mph75%30.63 "Hg10 mi
10:30 am36 °FSunny.9 mph81%30.63 "Hg10 mi
10:00 am34 °FPassing clouds.9 mph87%30.63 "HgN/A
9:30 am32 °FSunny.5 mph93%30.63 "Hg10 mi
9:00 am30 °FPassing clouds.5 mph93%30.63 "Hg6 mi
8:30 am28 °FClear.3 mph93%30.63 "Hg6 mi
8:00 am30 °FClear.2 mph93%30.63 "Hg6 mi
7:00 am30 °FClear.No wind93%30.63 "Hg4 mi
6:30 am30 °FClear.10 mph100%30.60 "Hg5 mi
6:00 am30 °FClear.9 mph100%30.60 "Hg4 mi
5:30 am30 °FClear.8 mph93%30.60 "Hg4 mi
5:00 am32 °FClear.10 mph93%30.60 "Hg5 mi
4:30 am32 °FClear.10 mph93%30.60 "Hg6 mi
4:00 am32 °FClear.10 mph93%30.60 "Hg10 mi
3:30 am34 °FClear.10 mph87%30.60 "Hg10 mi
3:00 am34 °FClear.12 mph93%30.60 "Hg10 mi
2:30 am34 °FClear.10 mph87%30.60 "Hg10 mi
2:00 am32 °FClear.10 mph93%30.60 "Hg10 mi
12:30 am32 °FClear.10 mph93%30.63 "Hg10 mi
12:00 am34 °FClear.12 mph87%30.63 "Hg10 mi
11:00 pm
Mon, Feb 6
34 °FClear.9 mph93%30.63 "Hg10 mi
10:30 pm34 °FPassing clouds.6 mph87%30.63 "HgN/A
10:00 pm34 °FPassing clouds.6 mph93%30.63 "HgN/A
Weather by CustomWeather, © 2023

See weather overview